Time;durP1;ratioP1;P1;durP2;ratioP2;P2;SDS_P1;SDS_P2;PMS_P1;PMS_P2;Temp;Humidity;BMP_temperature;BMP_pressure;BME280_temperature;BME280_humidity;BME280_pressure;Samples;Min_cycle;Max_cycle;Signal;HPM_P1;HPM_P2
2021/04/13 00:02:33;;;;;;;8.60;3.70;;;;;;;10.03;51.92;97729.11;1673288;85;21639;-64
2021/04/13 00:05:11;;;;;;;7.42;3.95;;;;;;;9.97;51.70;97729.67;1670784;85;21178;-63
2021/04/13 00:07:43;;;;;;;8.50;3.35;;;;;;;9.92;53.00;97725.42;1673382;85;21190;-62
2021/04/13 00:10:23;;;;;;;8.33;4.58;;;;;;;9.88;52.67;97728.75;1673252;85;21131;-62
2021/04/13 00:12:52;;;;;;;8.18;4.45;;;;;;;9.83;52.76;97729.69;1672431;85;21155;-64
2021/04/13 00:15:31;;;;;;;10.50;4.53;;;;;;;9.77;53.40;97739.32;1672958;85;21166;-65
2021/04/13 00:18:01;;;;;;;8.80;4.47;;;;;;;9.73;53.21;97734.08;1673104;85;21166;-62
2021/04/13 00:30:53;;;;;;;10.25;5.67;;;;;;;9.45;54.58;97735.81;1626151;87;21209;-64
2021/04/13 00:33:26;;;;;;;8.18;6.00;;;;;;;9.25;57.57;97739.44;1608368;88;21633;-64
2021/04/13 00:36:11;;;;;;;9.35;5.47;;;;;;;9.17;57.59;97743.20;1607957;88;21329;-64
2021/04/13 00:39:03;;;;;;;7.12;4.47;;;;;;;9.19;56.28;97741.27;1607748;88;21148;-64
2021/04/13 00:41:32;;;;;;;8.85;4.28;;;;;;;9.16;56.77;97750.63;1709063;83;21138;-62
2021/04/13 00:44:10;;;;;;;7.17;3.87;;;;;;;9.12;56.86;97747.15;1710203;84;21221;-63
2021/04/13 00:47:04;;;;;;;7.50;3.95;;;;;;;9.10;56.12;97746.48;1710336;84;21138;-62
2021/04/13 00:49:36;;;;;;;7.35;3.77;;;;;;;9.10;55.91;97743.89;1710338;84;21571;-62
2021/04/13 00:52:17;;;;;;;8.63;4.65;;;;;;;9.09;56.13;97739.66;1710071;84;21146;-65
2021/04/13 00:54:55;;;;;;;8.85;4.78;;;;;;;9.08;54.54;97734.95;1710167;83;21115;-62
2021/04/13 00:57:30;;;;;;;11.05;6.03;;;;;;;9.08;54.78;97736.73;1710186;84;21201;-63
2021/04/13 01:00:00;;;;;;;9.20;4.62;;;;;;;9.03;54.97;97728.89;1710012;84;21598;-63
2021/04/13 01:02:33;;;;;;;9.23;4.72;;;;;;;9.02;55.90;97731.16;1710035;83;21167;-63
2021/04/13 01:05:22;;;;;;;12.65;5.67;;;;;;;9.02;55.61;97728.58;1710257;84;21138;-63
2021/04/13 01:07:52;;;;;;;7.87;5.60;;;;;;;9.00;55.59;97723.99;1709848;82;21226;-63
2021/04/13 01:10:31;;;;;;;9.73;4.83;;;;;;;8.97;55.83;97726.05;1710040;84;21147;-62
2021/04/13 01:13:12;;;;;;;12.00;5.37;;;;;;;8.94;55.35;97721.97;1710022;84;21567;-63
2021/04/13 01:15:45;;;;;;;12.73;4.80;;;;;;;8.92;55.45;97717.39;1709971;84;21193;-63
2021/04/13 01:18:22;;;;;;;9.98;4.85;;;;;;;8.93;55.02;97715.15;1710217;83;21179;-65
2021/04/13 01:21:10;;;;;;;;;;;;;;;8.92;54.37;97713.51;1713019;84;21166;-63
2021/04/13 01:23:55;;;;;;;7.45;4.50;;;;;;;8.91;55.72;97711.86;1710347;84;20138;-63
2021/04/13 01:26:19;;;;;;;7.83;4.47;;;;;;;8.90;56.42;97710.25;1709791;84;21127;-63
2021/04/13 01:28:51;;;;;;;10.45;5.15;;;;;;;8.87;55.99;97704.03;1710247;84;21159;-65
2021/04/13 01:34:21;;;;;;;9.95;4.80;;;;;;;8.89;56.47;97704.73;1710354;83;21139;-65
2021/04/13 01:37:34;;;;;;;7.45;4.80;;;;;;;8.85;57.13;97701.25;1710400;84;21556;-62
2021/04/13 01:40:34;;;;;;;9.70;5.08;;;;;;;8.85;55.78;97699.48;1633274;85;21260;-64
2021/04/13 01:43:01;;;;;;;8.85;5.33;;;;;;;8.88;54.98;97695.79;1671415;81;21286;-63
2021/04/13 01:45:53;;;;;;;9.88;4.45;;;;;;;8.92;54.16;97693.27;1746801;80;21173;-63
2021/04/13 01:48:22;;;;;;;9.03;5.55;;;;;;;8.94;54.15;97687.02;1709268;82;21662;-63
2021/04/13 01:50:57;;;;;;;9.30;5.58;;;;;;;8.95;56.90;97686.03;1753920;80;21147;-63
2021/04/13 01:53:26;;;;;;;10.82;5.08;;;;;;;8.92;56.47;97681.61;1788083;79;21607;-63
2021/04/13 01:56:05;;;;;;;10.45;5.37;;;;;;;8.88;57.02;97683.66;1750215;78;21562;-63
2021/04/13 01:59:02;;;;;;;10.15;5.65;;;;;;;8.86;58.00;97681.70;1756383;80;21163;-62
2021/04/13 02:01:37;;;;;;;;;;;;;;;8.83;58.37;97680.66;1758378;80;21180;-63
2021/04/13 02:04:32;;;;;;;8.40;4.62;;;;;;;8.81;58.30;97679.18;1744776;81;20209;-63
2021/04/13 02:07:32;;;;;;;8.45;4.95;;;;;;;8.74;58.36;97680.22;1724160;82;21605;-65
2021/04/13 02:10:02;;;;;;;10.23;5.55;;;;;;;8.69;58.40;97681.58;1755358;80;21095;-62
2021/04/13 02:12:35;;;;;;;6.78;4.20;;;;;;;8.65;58.14;97677.15;1744558;81;21160;-63
2021/04/13 02:15:31;;;;;;;14.05;5.40;;;;;;;8.64;58.75;97679.89;1744779;81;21573;-62
2021/04/13 02:18:04;;;;;;;9.15;5.08;;;;;;;8.63;58.39;97679.08;1744720;81;21117;-62
2021/04/13 02:20:40;;;;;;;13.55;5.12;;;;;;;8.65;58.87;97679.73;1724424;82;21159;-62
2021/04/13 02:23:08;;;;;;;7.50;5.10;;;;;;;8.66;58.07;97683.15;1756080;80;21144;-62
2021/04/13 02:25:40;;;;;;;10.65;5.03;;;;;;;8.68;57.86;97674.75;1753523;82;21220;-62
2021/04/13 02:28:09;;;;;;;10.85;5.72;;;;;;;8.70;57.03;97667.20;1755842;80;21555;-63
2021/04/13 02:30:46;;;;;;;8.55;5.15;;;;;;;8.74;56.23;97667.27;1753729;81;21179;-64
2021/04/13 02:33:32;;;;;;;10.58;4.97;;;;;;;8.76;57.02;97662.76;1756022;80;21153;-64
2021/04/13 02:36:14;;;;;;;7.67;4.35;;;;;;;8.77;57.92;97665.70;1744864;81;21621;-64
2021/04/13 02:38:49;;;;;;;9.50;4.53;;;;;;;8.71;58.79;97662.38;1724516;82;21151;-63
2021/04/13 02:41:33;;;;;;;7.90;4.17;;;;;;;8.69;59.14;97665.56;1755841;80;21147;-63
2021/04/13 02:44:28;;;;;;;6.70;3.33;;;;;;;8.69;58.60;97659.56;1744751;81;21176;-64
2021/04/13 02:47:02;;;;;;;8.78;3.77;;;;;;;8.68;58.77;97658.75;1687838;85;21164;-63
2021/04/13 02:49:32;;;;;;;8.65;4.40;;;;;;;8.69;58.38;97656.51;1697044;83;21177;-64
2021/04/13 02:52:04;;;;;;;7.53;4.20;;;;;;;8.69;57.80;97658.27;1696828;83;21152;-64
2021/04/13 02:54:41;;;;;;;10.80;3.90;;;;;;;8.71;58.00;97658.97;1696954;83;21204;-62
2021/04/13 02:57:14;;;;;;;7.47;4.62;;;;;;;8.70;57.94;97653.45;1697383;83;21179;-64
2021/04/13 02:59:43;;;;;;;6.30;3.87;;;;;;;8.70;57.18;97655.56;1697083;83;21168;-64
2021/04/13 03:02:21;;;;;;;6.85;4.28;;;;;;;8.71;58.17;97657.67;1697158;83;21608;-68
2021/04/13 03:04:53;;;;;;;5.65;4.15;;;;;;;8.69;57.76;97655.69;1697271;83;21156;-64
2021/04/13 03:07:26;;;;;;;9.65;4.37;;;;;;;8.67;58.36;97657.14;1675632;83;21231;-63
2021/04/13 03:09:58;;;;;;;7.62;4.47;;;;;;;8.66;57.45;97659.85;1697110;83;21167;-62
2021/04/13 03:12:30;;;;;;;8.68;4.62;;;;;;;8.64;57.50;97659.98;1694787;83;21176;-62
2021/04/13 03:14:58;;;;;;;10.98;4.70;;;;;;;8.65;57.42;97658.21;1697008;84;21190;-64
2021/04/13 03:17:30;;;;;;;9.28;4.53;;;;;;;8.66;57.07;97658.09;1697171;83;21212;-64
2021/04/13 03:20:09;;;;;;;12.00;4.65;;;;;;;8.64;58.49;97670.33;1696153;83;21144;-62
2021/04/13 03:22:40;;;;;;;18.37;4.97;;;;;;;8.62;57.76;97675.31;1696406;83;21184;-62
2021/04/13 03:25:13;;;;;;;18.48;4.95;;;;;;;8.62;57.40;97677.44;1697229;83;21231;-64
2021/04/13 03:27:43;;;;;;;11.48;5.72;;;;;;;8.63;57.20;97676.95;1695644;83;21247;-62
2021/04/13 03:30:29;;;;;;;8.80;4.70;;;;;;;8.61;57.04;97678.38;1696605;83;21188;-62
2021/04/13 03:33:17;;;;;;;7.47;4.70;;;;;;;8.62;58.13;97671.44;1696981;83;21171;-62
2021/04/13 03:35:46;;;;;;;12.13;4.90;;;;;;;8.60;57.99;97668.97;1674884;83;21643;-65
2021/04/13 03:38:19;;;;;;;10.30;4.65;;;;;;;8.58;58.19;97669.13;1697131;83;21183;-65
2021/04/13 03:40:50;;;;;;;18.35;5.33;;;;;;;8.59;57.39;97667.36;1695912;83;21170;-64
2021/04/13 03:43:24;;;;;;;9.83;5.50;;;;;;;8.60;58.71;97665.59;1696934;83;21208;-64
2021/04/13 03:46:00;;;;;;;11.30;5.55;;;;;;;8.58;58.81;97667.83;1710927;81;21210;-65
2021/04/13 03:48:31;;;;;;;10.93;5.42;;;;;;;8.56;59.56;97664.55;1697918;81;21154;-64
2021/04/13 03:51:10;;;;;;;9.30;5.85;;;;;;;8.54;59.25;97670.83;1727835;81;21185;-65
2021/04/13 03:53:42;;;;;;;10.15;5.17;;;;;;;8.51;58.95;97665.93;1727933;81;21169;-64
2021/04/13 03:56:14;;;;;;;11.93;6.00;;;;;;;8.52;58.95;97666.28;1728141;81;21605;-64
2021/04/13 03:58:47;;;;;;;12.45;5.70;;;;;;;8.52;59.45;97670.16;1727861;81;21146;-64
2021/04/13 04:01:20;;;;;;;8.90;5.15;;;;;;;8.51;59.13;97675.81;1727907;81;21205;-65
2021/04/13 04:04:02;;;;;;;7.87;5.10;;;;;;;8.48;61.61;97666.21;1727838;81;21200;-64
2021/04/13 04:10:21;;;;;;;12.28;5.72;;;;;;;8.56;59.80;97668.43;1819515;79;22665;-64
2021/04/13 04:13:06;;;;;;;12.15;5.22;;;;;;;8.53;59.24;97674.36;1727965;83;21213;-64
2021/04/13 04:15:51;;;;;;;6.42;4.67;;;;;;;8.56;59.57;97678.78;1757418;81;21134;-63
2021/04/13 04:18:47;;;;;;;11.88;4.87;;;;;;;8.58;60.77;97671.72;1758153;81;21184;-63
2021/04/13 04:21:20;;;;;;;7.45;5.28;;;;;;;8.62;58.96;97668.84;1757763;81;21184;-64
2021/04/13 04:23:56;;;;;;;9.93;5.42;;;;;;;8.68;58.31;97663.92;1728190;82;21220;-65
2021/04/13 04:26:27;;;;;;;;;;;;;;;8.73;58.14;97660.45;1760909;81;21164;-64
2021/04/13 04:29:00;;;;;;;13.55;5.22;;;;;;;8.80;58.31;97671.89;1758057;81;20129;-64
2021/04/13 04:31:53;;;;;;;11.28;5.47;;;;;;;8.85;57.71;97673.59;1730285;81;21585;-64
2021/04/13 04:34:27;;;;;;;13.28;5.65;;;;;;;8.91;57.08;97670.43;1698239;83;21139;-63
2021/04/13 04:40:42;;;;;;;15.07;6.43;;;;;;;9.02;60.29;97681.95;1701438;82;21357;-65
2021/04/13 04:43:15;;;;;;;;;;;;;;;9.12;58.12;97685.80;1758363;81;21184;-65
2021/04/13 04:45:48;;;;;;;15.93;5.58;;;;;;;9.20;58.29;97689.80;1754876;81;20184;-65
2021/04/13 04:48:38;;;;;;;11.15;6.47;;;;;;;9.26;57.85;97685.34;1757248;81;21171;-65
2021/04/13 04:54:44;;;;;;;10.88;6.03;;;;;;;9.40;58.56;97682.78;1699622;84;21153;-64
2021/04/13 05:00:52;;;;;;;12.53;6.55;;;;;;;9.57;56.83;97684.64;1699542;84;21541;-64
2021/04/13 05:06:59;;;;;;;13.98;6.58;;;;;;;9.75;57.09;97678.20;1699651;84;21292;-64
2021/04/13 05:12:53;;;;;;;19.55;6.92;;;;;;;9.89;55.96;97670.74;1699502;84;21136;-64
2021/04/13 05:18:42;;;;;;;14.87;7.85;;;;;;;10.01;58.01;97669.58;1694875;83;21256;-64
2021/04/13 05:21:10;;;;;;;14.73;7.20;;;;;;;10.12;55.98;97662.54;1700577;84;21186;-65
2021/04/13 05:23:38;;;;;;;16.60;7.10;;;;;;;10.20;56.10;97667.37;1700247;84;21173;-62
2021/04/13 05:26:06;;;;;;;12.10;7.10;;;;;;;10.28;54.79;97667.92;1700268;84;21163;-64
2021/04/13 05:28:34;;;;;;;14.50;6.92;;;;;;;10.36;54.95;97660.22;1700493;84;21170;-62
2021/04/13 05:31:03;;;;;;;12.23;6.28;;;;;;;10.46;54.78;97662.27;1716501;83;21202;-65
2021/04/13 05:33:32;;;;;;;15.58;7.00;;;;;;;10.54;55.27;97657.62;1696131;84;21175;-64
2021/04/13 05:36:02;;;;;;;15.05;7.10;;;;;;;10.63;55.53;97663.20;1689500;84;21680;-65
2021/04/13 05:38:35;;;;;;;15.30;6.37;;;;;;;10.70;55.07;97665.05;1696933;84;21592;-63
2021/04/13 05:41:07;;;;;;;12.18;6.55;;;;;;;10.80;54.31;97664.49;1696879;84;21633;-65
2021/04/13 05:43:39;;;;;;;13.68;7.67;;;;;;;10.88;55.44;97659.36;1683554;85;21196;-63
2021/04/13 05:46:08;;;;;;;16.02;7.60;;;;;;;10.91;55.86;97656.93;1713327;84;21164;-65
2021/04/13 05:48:36;;;;;;;14.65;7.20;;;;;;;10.93;55.73;97655.80;1713382;83;21576;-65
2021/04/13 05:51:05;;;;;;;15.55;8.10;;;;;;;11.03;54.66;97653.59;1699025;84;21208;-67
2021/04/13 05:53:34;;;;;;;29.07;13.98;;;;;;;11.13;54.53;97652.52;1682679;84;21178;-65
2021/04/13 05:56:02;;;;;;;44.95;22.32;;;;;;;11.25;53.93;97655.67;1698846;84;21168;-66
2021/04/13 05:58:41;;;;;;;76.47;31.52;;;;;;;11.37;53.85;97652.66;1698656;84;21124;-65
2021/04/13 06:01:10;;;;;;;32.40;17.00;;;;;;;11.50;53.98;97654.84;1680185;84;21175;-64
2021/04/13 06:03:40;;;;;;;27.80;15.83;;;;;;;11.59;53.85;97651.31;1680385;84;21183;-65
2021/04/13 06:06:09;;;;;;;41.98;20.90;;;;;;;11.70;53.39;97650.20;1698929;83;21167;-68
2021/04/13 06:08:37;;;;;;;19.30;11.08;;;;;;;11.83;52.54;97644.91;1698815;84;21190;-67
2021/04/13 06:11:09;;;;;;;17.15;7.15;;;;;;;11.92;53.74;97641.84;1680232;84;21301;-67
2021/04/13 06:13:37;;;;;;;13.53;8.08;;;;;;;11.99;52.97;97644.62;1686793;84;21168;-66
2021/04/13 06:16:08;;;;;;;14.50;7.45;;;;;;;12.09;52.83;97640.10;1700873;84;21171;-71
2021/04/13 06:18:35;;;;;;;16.75;7.65;;;;;;;12.18;52.34;97643.03;1674279;84;21185;-71
2021/04/13 06:21:05;;;;;;;27.67;8.50;;;;;;;12.28;52.20;97638.02;1671988;86;21163;-67
2021/04/13 06:23:33;;;;;;;14.00;7.28;;;;;;;12.40;51.91;97642.91;1672154;85;21202;-70
2021/04/13 06:26:03;;;;;;;22.05;7.47;;;;;;;12.48;51.46;97642.44;1671962;86;21178;-66
2021/04/13 06:28:32;;;;;;;18.05;7.55;;;;;;;12.61;51.39;97638.84;1672590;85;21262;-73
2021/04/13 06:31:00;;;;;;;15.28;7.72;;;;;;;12.68;50.36;97631.99;1672250;85;21191;-70
2021/04/13 06:33:28;;;;;;;14.47;6.62;;;;;;;12.76;50.19;97631.98;1672187;85;21604;-71
2021/04/13 06:35:59;;;;;;;10.70;7.25;;;;;;;12.81;49.74;97636.71;1672229;86;21211;-69
2021/04/13 06:38:28;;;;;;;12.65;6.62;;;;;;;12.83;49.36;97636.08;1672180;85;21167;-63
2021/04/13 06:41:38;;;;;;;12.43;6.20;;;;;;;12.62;48.93;97638.35;1671879;86;21170;-63
2021/04/13 06:51:15;;;;;;;8.68;5.45;;;;;;;12.75;48.51;97632.17;1780401;79;22670;-64
2021/04/13 06:53:54;;;;;;;17.23;9.23;;;;;;;12.77;48.38;97640.14;1753270;82;21112;-65
2021/04/13 07:00:13;;;;;;;18.70;7.55;;;;;;;12.58;49.80;97644.86;1716121;83;21163;-64
2021/04/13 07:03:11;;;;;;;15.40;7.75;;;;;;;12.65;49.54;97633.63;1716344;83;21192;-63
2021/04/13 07:05:47;;;;;;;10.65;6.85;;;;;;;12.70;49.19;97636.56;1721710;83;21180;-63
2021/04/13 07:12:10;;;;;;;19.05;6.08;;;;;;;12.90;48.73;97643.55;1715343;84;21637;-64
2021/04/13 07:14:54;;;;;;;13.98;6.37;;;;;;;13.10;48.33;97645.34;1754622;81;21589;-64
2021/04/13 07:17:34;;;;;;;11.97;6.55;;;;;;;13.30;47.97;97640.91;1754767;81;21202;-63
2021/04/13 07:20:10;;;;;;;12.40;6.60;;;;;;;13.47;47.54;97639.53;1754865;82;21172;-63
2021/04/13 07:22:47;;;;;;;13.55;6.30;;;;;;;13.58;47.07;97637.88;1749916;82;21607;-63
2021/04/13 07:25:23;;;;;;;11.55;6.45;;;;;;;13.55;46.93;97620.75;1754784;81;21151;-64
2021/04/13 07:27:54;;;;;;;;;;;;;;;13.71;46.54;97638.13;1757269;82;21195;-70
2021/04/13 07:30:39;;;;;;;14.98;7.05;;;;;;;13.79;46.69;97640.22;1754761;82;20133;-65
2021/04/13 07:33:31;;;;;;;22.95;10.65;;;;;;;13.86;46.58;97634.30;1754700;82;21151;-64
2021/04/13 07:36:23;;;;;;;14.55;7.80;;;;;;;13.84;46.83;97636.29;1754489;82;21208;-66
2021/04/13 07:38:54;;;;;;;11.83;6.15;;;;;;;13.96;46.66;97635.73;1762633;81;21705;-66
2021/04/13 07:41:27;;;;;;;15.40;6.35;;;;;;;14.09;46.53;97631.23;1762522;81;21303;-66
2021/04/13 07:44:34;;;;;;;10.10;5.80;;;;;;;13.90;47.22;97632.98;1762801;81;21125;-66
2021/04/13 07:47:23;;;;;;;12.98;5.75;;;;;;;14.08;46.83;97627.02;1762735;81;21169;-65
2021/04/13 07:49:57;;;;;;;8.65;5.58;;;;;;;14.26;46.92;97623.63;1733449;81;21114;-66
2021/04/13 07:53:00;;;;;;;13.80;5.35;;;;;;;14.28;46.94;97620.86;1762908;81;21577;-66
2021/04/13 07:56:18;;;;;;;14.60;7.17;;;;;;;14.33;46.90;97626.35;1762767;81;21168;-65
2021/04/13 07:59:06;;;;;;;10.30;5.35;;;;;;;14.05;47.79;97628.16;1768128;81;21552;-65
2021/04/13 08:01:35;;;;;;;6.83;5.00;;;;;;;14.20;47.29;97627.73;1704680;84;21239;-64
2021/04/13 08:04:04;;;;;;;14.33;6.33;;;;;;;14.05;47.84;97625.55;1704204;84;21187;-64
2021/04/13 08:06:37;;;;;;;6.40;4.45;;;;;;;13.98;48.07;97627.23;1703904;84;21175;-64
2021/04/13 08:09:37;;;;;;;15.38;5.25;;;;;;;14.14;47.81;97626.32;1733557;83;21153;-64
2021/04/13 08:12:29;;;;;;;14.07;5.15;;;;;;;14.28;47.68;97627.39;1733906;83;21163;-66
2021/04/13 08:15:11;;;;;;;13.70;5.33;;;;;;;14.26;47.60;97621.02;1703583;84;22119;-65
2021/04/13 08:17:58;;;;;;;9.33;5.62;;;;;;;14.24;47.81;97621.18;1734080;83;21151;-66
2021/04/13 08:20:34;;;;;;;10.48;5.85;;;;;;;14.30;47.81;97622.79;1704554;84;21289;-65
2021/04/13 08:23:07;;;;;;;12.07;5.37;;;;;;;14.34;47.78;97616.23;1734553;83;21167;-65
2021/04/13 08:25:46;;;;;;;11.30;5.83;;;;;;;14.38;47.63;97618.84;1704551;83;21338;-65
2021/04/13 08:28:37;;;;;;;10.00;5.22;;;;;;;14.40;48.10;97621.59;1733416;82;21553;-65
2021/04/13 08:34:46;;;;;;;12.00;6.22;;;;;;;14.77;47.25;97618.20;1733947;83;21533;-65
2021/04/13 08:37:50;;;;;;;13.28;6.50;;;;;;;14.95;46.43;97616.55;1704754;84;21175;-65
2021/04/13 08:40:34;;;;;;;15.55;6.03;;;;;;;14.85;46.61;97613.39;1734223;82;21581;-65
2021/04/13 08:43:17;;;;;;;10.80;5.78;;;;;;;14.98;46.29;97609.16;1704417;83;21207;-64
2021/04/13 08:45:49;;;;;;;10.78;5.92;;;;;;;15.16;46.01;97597.06;1733794;83;21156;-66
2021/04/13 08:48:45;;;;;;;11.63;5.55;;;;;;;15.43;44.96;97604.76;1702231;84;21167;-65
2021/04/13 08:51:22;;;;;;;12.40;5.97;;;;;;;15.66;44.53;97598.94;1767517;81;21541;-66
2021/04/13 08:54:23;;;;;;;9.50;5.47;;;;;;;15.86;44.10;97597.38;1764711;81;21172;-68
2021/04/13 08:57:02;;;;;;;11.60;5.70;;;;;;;16.09;43.34;97595.41;1704367;84;21598;-65
2021/04/13 09:02:34;;;;;;;13.28;5.83;;;;;;;16.35;42.26;97596.15;1708812;83;21203;-66
2021/04/13 09:05:23;;;;;;;8.33;4.92;;;;;;;16.24;42.14;97597.96;1698937;84;21149;-64
2021/04/13 09:08:14;;;;;;;8.43;5.90;;;;;;;16.21;42.22;97590.98;1679822;84;21610;-66
2021/04/13 09:10:50;;;;;;;12.55;5.75;;;;;;;16.17;42.53;97589.72;1704400;84;21136;-66
2021/04/13 09:13:29;;;;;;;15.60;5.87;;;;;;;16.33;42.09;97586.37;1679900;84;21571;-65
2021/04/13 09:16:20;;;;;;;8.93;5.50;;;;;;;16.37;41.96;97585.00;1679643;84;21619;-65
2021/04/13 09:18:56;;;;;;;9.75;5.30;;;;;;;16.50;41.66;97578.53;1679050;84;21177;-65
2021/04/13 09:25:06;;;;;;;9.38;5.70;;;;;;;16.77;41.74;97576.96;1695958;84;21143;-65
2021/04/13 09:27:49;;;;;;;;;;;;;;;16.86;40.91;97570.58;1826396;77;22698;-65
2021/04/13 09:30:42;;;;;;;11.30;6.22;;;;;;;16.78;40.88;97569.91;1827502;78;20133;-64
2021/04/13 09:33:21;;;;;;;7.45;5.42;;;;;;;16.91;40.85;97571.32;1729781;83;21167;-65
2021/04/13 09:36:00;;;;;;;10.80;5.15;;;;;;;17.08;40.51;97570.81;1729691;83;21167;-65
2021/04/13 09:39:01;;;;;;;9.48;6.20;;;;;;;17.13;40.02;97559.75;1729546;83;21166;-66
2021/04/13 09:41:54;;;;;;;10.98;6.05;;;;;;;17.31;39.98;97552.19;1729675;83;21182;-65
2021/04/13 09:44:52;;;;;;;13.10;5.47;;;;;;;17.44;39.39;97550.91;1729721;83;21163;-66
2021/04/13 09:47:43;;;;;;;8.10;5.60;;;;;;;17.64;40.11;97559.40;1729685;83;22242;-65
2021/04/13 09:51:14;;;;;;;12.07;6.10;;;;;;;17.90;39.20;97557.66;1729838;83;21174;-66
2021/04/13 09:53:59;;;;;;;11.88;5.53;;;;;;;17.90;38.58;97550.28;1729774;83;21191;-65
2021/04/13 09:57:12;;;;;;;13.05;5.30;;;;;;;18.02;38.74;97547.37;1729816;82;21553;-65
2021/04/13 10:00:09;;;;;;;13.20;5.62;;;;;;;18.21;38.42;97544.50;1727881;82;21777;-66
2021/04/13 10:03:30;;;;;;;7.85;4.97;;;;;;;18.37;37.40;97539.64;1698120;83;21163;-65
2021/04/13 10:06:01;;;;;;;9.80;5.00;;;;;;;18.44;37.20;97542.29;1667587;85;21664;-64
2021/04/13 10:08:35;;;;;;;7.60;5.25;;;;;;;18.52;37.14;97546.03;1661654;86;21203;-65
2021/04/13 10:11:27;;;;;;;9.30;4.58;;;;;;;18.59;36.92;97547.36;1662006;85;21195;-65
2021/04/13 10:17:52;;;;;;;12.95;5.97;;;;;;;18.38;36.60;97541.77;1653052;85;20134;-65
2021/04/13 10:20:44;;;;;;;12.82;5.67;;;;;;;18.45;36.91;97532.86;1624348;87;21201;-65
2021/04/13 10:23:43;;;;;;;8.73;5.17;;;;;;;18.43;36.92;97528.33;1651364;86;21188;-64
2021/04/13 10:26:34;;;;;;;10.30;5.72;;;;;;;18.56;36.56;97529.38;1686287;82;21655;-63
2021/04/13 10:29:47;;;;;;;9.13;4.92;;;;;;;18.62;36.53;97521.97;1681683;85;21679;-66
2021/04/13 10:32:42;;;;;;;13.28;5.87;;;;;;;18.62;36.79;97527.23;1656312;85;21577;-65
2021/04/13 10:35:32;;;;;;;9.55;5.58;;;;;;;18.64;36.71;97519.42;1684466;84;21761;-65
2021/04/13 10:38:35;;;;;;;16.67;5.95;;;;;;;18.56;37.24;97516.22;1681753;85;21187;-65
2021/04/13 10:44:34;;;;;;;11.88;6.12;;;;;;;18.63;36.88;97511.77;1737560;82;21187;-65
2021/04/13 10:47:35;;;;;;;11.13;5.90;;;;;;;18.61;37.22;97506.69;1706164;84;21164;-65
2021/04/13 10:50:27;;;;;;;12.20;6.75;;;;;;;18.49;36.72;97487.25;1653846;87;21194;-64
2021/04/13 10:53:49;;;;;;;13.05;6.20;;;;;;;18.70;36.53;97499.41;1654983;87;21275;-64
2021/04/13 10:56:51;;;;;;;8.18;5.12;;;;;;;18.68;36.52;97495.65;1585102;90;21295;-66
2021/04/13 10:59:55;;;;;;;5.45;3.47;;;;;;;18.79;36.68;97496.34;1656976;87;21170;-68
2021/04/13 11:02:54;;;;;;;7.28;4.25;;;;;;;19.07;36.93;97500.02;1656833;87;21179;-65
2021/04/13 11:05:33;;;;;;;9.80;3.45;;;;;;;19.21;37.22;97505.55;1656180;87;21254;-66
2021/04/13 11:08:39;;;;;;;7.62;2.87;;;;;;;19.30;35.34;97497.70;1656250;87;21132;-64
2021/04/13 11:11:46;;;;;;;4.83;2.92;;;;;;;19.39;34.37;97497.77;1656132;87;21172;-64
2021/04/13 11:14:36;;;;;;;12.80;3.87;;;;;;;19.19;34.89;97497.03;1656113;87;21167;-63
2021/04/13 11:18:01;;;;;;;7.28;3.25;;;;;;;18.90;36.30;97503.63;1654950;85;21639;-63
2021/04/13 11:20:53;;;;;;;5.30;3.35;;;;;;;18.97;36.15;97506.23;1625687;87;21234;-65
2021/04/13 11:24:15;;;;;;;5.97;2.90;;;;;;;18.95;36.24;97502.98;1601478;88;21201;-65
2021/04/13 11:27:19;;;;;;;6.55;3.52;;;;;;;18.99;36.17;97504.72;1626777;88;21242;-67
2021/04/13 11:30:01;;;;;;;4.78;3.00;;;;;;;18.80;36.14;97503.22;1626234;87;21258;-66
2021/04/13 11:33:13;;;;;;;;;;;;;;;18.87;36.21;97499.28;1826408;77;22546;-65
2021/04/13 11:36:07;;;;;;;8.08;2.47;;;;;;;18.74;36.32;97499.30;1692968;83;20179;-66
2021/04/13 11:38:59;;;;;;;7.10;2.80;;;;;;;18.83;36.36;97500.17;1693587;83;21195;-66
2021/04/13 11:41:58;;;;;;;4.80;3.00;;;;;;;18.87;36.22;97500.59;1693357;83;21139;-65
2021/04/13 11:44:48;;;;;;;2.70;1.80;;;;;;;18.85;35.82;97501.30;1693511;83;21612;-66
2021/04/13 11:48:00;;;;;;;6.08;2.50;;;;;;;18.86;36.04;97505.55;1682688;83;21136;-66
2021/04/13 11:50:36;;;;;;;8.30;3.05;;;;;;;18.83;35.82;97504.66;1698985;84;21194;-66
2021/04/13 11:53:16;;;;;;;6.67;2.90;;;;;;;18.82;36.08;97502.52;1699271;84;21219;-65
2021/04/13 11:55:48;;;;;;;4.50;2.33;;;;;;;18.75;36.03;97493.84;1690153;84;21619;-65
2021/04/13 11:58:27;;;;;;;4.17;2.17;;;;;;;18.73;36.01;97498.98;1669450;86;21172;-65
2021/04/13 12:01:15;;;;;;;4.67;2.45;;;;;;;18.57;36.13;97488.39;1674547;86;21190;-65
2021/04/13 12:04:09;;;;;;;5.70;2.65;;;;;;;18.41;36.36;97483.02;1657570;85;21199;-65
2021/04/13 12:07:03;;;;;;;3.40;2.20;;;;;;;18.30;36.85;97490.20;1674660;86;21183;-65
2021/04/13 12:10:01;;;;;;;5.87;2.67;;;;;;;18.16;37.00;97493.84;1669395;86;21616;-65
2021/04/13 12:12:38;;;;;;;4.15;2.35;;;;;;;18.14;37.24;97492.41;1674662;86;21223;-65
2021/04/13 12:15:14;;;;;;;4.83;2.20;;;;;;;18.15;37.47;97490.91;1698960;84;21199;-65
2021/04/13 12:17:51;;;;;;;6.20;2.58;;;;;;;18.18;37.33;97486.56;1669531;86;21187;-65
2021/04/13 12:20:32;;;;;;;3.77;2.10;;;;;;;18.23;37.22;97469.69;1674624;86;21605;-65
2021/04/13 12:23:27;;;;;;;3.95;1.98;;;;;;;18.22;37.19;97470.69;1698881;84;21203;-65
2021/04/13 12:26:00;;;;;;;4.25;2.40;;;;;;;18.21;37.31;97464.34;1659772;85;21212;-65
2021/04/13 12:31:23;;;;;;;4.37;2.42;;;;;;;18.16;38.03;97467.57;1669670;85;21229;-64
2021/04/13 12:33:56;;;;;;;5.30;2.10;;;;;;;18.19;37.72;97467.16;1688305;85;21613;-65
2021/04/13 12:36:46;;;;;;;11.50;2.60;;;;;;;18.23;37.74;97472.31;1656916;86;21222;-65
2021/04/13 12:39:51;;;;;;;7.78;2.10;;;;;;;18.28;37.79;97462.02;1657145;86;21179;-64
2021/04/13 12:42:33;;;;;;;3.35;2.35;;;;;;;18.32;37.84;97463.72;1656908;86;21648;-64
2021/04/13 12:45:23;;;;;;;6.83;2.52;;;;;;;18.36;37.69;97454.42;1651844;86;21244;-65
2021/04/13 12:47:56;;;;;;;3.95;2.08;;;;;;;18.34;37.72;97455.12;1656354;86;21208;-65
2021/04/13 12:50:41;;;;;;;9.80;2.42;;;;;;;18.34;38.10;97446.73;1656295;86;21164;-64
2021/04/13 12:53:17;;;;;;;4.85;2.50;;;;;;;18.36;38.11;97443.41;1656509;86;21615;-64
2021/04/13 12:55:45;;;;;;;7.53;2.45;;;;;;;18.26;38.74;97445.63;1656724;85;21229;-64
2021/04/13 12:58:16;;;;;;;6.03;2.80;;;;;;;18.19;39.30;97438.75;1655476;86;22229;-65
2021/04/13 13:00:48;;;;;;;5.72;3.37;;;;;;;18.21;39.43;97446.73;1656660;86;21233;-65
2021/04/13 13:03:44;;;;;;;5.30;2.72;;;;;;;18.15;39.71;97440.17;1656403;85;21219;-65
2021/04/13 13:06:25;;;;;;;5.00;2.75;;;;;;;18.21;39.11;97444.62;1582338;90;21191;-65
2021/04/13 13:08:58;;;;;;;5.35;2.77;;;;;;;18.21;38.77;97438.84;1620814;88;21652;-65
2021/04/13 13:11:26;;;;;;;3.80;2.15;;;;;;;18.19;39.30;97437.44;1620795;88;21208;-65
2021/04/13 13:13:55;;;;;;;4.22;2.22;;;;;;;18.29;38.96;97432.06;1579285;90;21257;-65
2021/04/13 13:16:27;;;;;;;7.08;2.45;;;;;;;18.41;38.93;97429.62;1578495;91;21181;-64
2021/04/13 13:18:58;;;;;;;9.60;2.85;;;;;;;18.50;38.93;97423.95;1579333;90;21266;-65
2021/04/13 13:21:51;;;;;;;5.92;2.80;;;;;;;18.55;39.15;97426.00;1579472;91;21252;-65
2021/04/13 13:24:43;;;;;;;6.10;2.37;;;;;;;18.63;39.46;97426.29;1579499;91;21630;-65
2021/04/13 13:27:31;;;;;;;5.95;2.40;;;;;;;18.77;39.13;97418.15;1579882;90;21288;-66
2021/04/13 13:30:07;;;;;;;6.97;2.85;;;;;;;18.93;38.85;97420.83;1580153;91;21651;-65
2021/04/13 13:32:37;;;;;;;5.00;2.47;;;;;;;19.08;38.93;97416.11;1580115;90;21623;-66
2021/04/13 13:35:11;;;;;;;5.53;3.25;;;;;;;19.18;38.48;97419.08;1580168;90;21234;-66
2021/04/13 13:37:46;;;;;;;5.70;3.83;;;;;;;19.23;38.75;97415.83;1580123;90;21246;-66
2021/04/13 13:40:26;;;;;;;6.57;3.87;;;;;;;19.08;39.22;97413.98;1580352;90;21247;-66
2021/04/13 13:42:56;;;;;;;5.08;2.65;;;;;;;19.03;39.10;97411.97;1579752;90;21458;-66
2021/04/13 13:45:31;;;;;;;5.33;2.80;;;;;;;19.06;38.99;97410.26;1579020;90;21175;-66
2021/04/13 13:47:59;;;;;;;7.97;3.42;;;;;;;19.07;38.60;97407.09;1578162;90;21257;-66
2021/04/13 13:50:37;;;;;;;5.35;3.40;;;;;;;19.02;39.14;97409.06;1579883;89;21210;-66
2021/04/13 13:53:21;;;;;;;5.35;2.83;;;;;;;18.98;38.99;97403.91;1579900;90;21199;-66